createdAt,value
2022-10-29T00:02:24.809Z,98713.47
2022-10-29T00:05:30.493Z,98708.19
2022-10-29T00:08:40.365Z,98706.69
2022-10-29T00:11:46.030Z,98711.69
2022-10-29T00:14:54.407Z,98707.16
2022-10-29T00:18:00.124Z,98714.00
2022-10-29T00:21:13.790Z,98714.31
2022-10-29T00:24:19.390Z,98707.66
2022-10-29T00:27:25.149Z,98696.84
2022-10-29T00:30:33.443Z,98710.34
2022-10-29T00:33:39.220Z,98710.50
2022-10-29T00:36:44.811Z,98710.13
2022-10-29T00:39:50.376Z,98705.69
2022-10-29T00:42:56.015Z,98702.16
2022-10-29T00:46:10.419Z,98693.84
2022-10-29T00:49:17.283Z,98700.84
2022-10-29T00:52:28.863Z,98698.00
2022-10-29T00:55:35.688Z,98692.84
2022-10-29T00:58:41.738Z,98692.53
2022-10-29T01:01:52.849Z,98681.53
2022-10-29T01:04:59.654Z,98670.38
2022-10-29T01:08:06.249Z,98669.19
2022-10-29T01:11:29.797Z,98665.88
2022-10-29T01:14:52.651Z,98662.06
2022-10-29T01:18:20.801Z,98663.06
2022-10-29T01:21:45.364Z,98671.53
2022-10-29T01:25:33.377Z,98669.72
2022-10-29T01:29:13.508Z,98680.53
2022-10-29T01:32:34.411Z,98677.03
2022-10-29T01:35:59.162Z,98677.69
2022-10-29T01:39:19.883Z,98664.53
2022-10-29T01:42:38.644Z,98673.91
2022-10-29T01:45:53.763Z,98675.22
2022-10-29T01:49:15.126Z,98673.56
2022-10-29T01:52:27.583Z,98669.53
2022-10-29T01:55:38.267Z,98675.56
2022-10-29T01:58:53.282Z,98667.19
2022-10-29T02:02:15.682Z,98660.38
2022-10-29T02:05:35.881Z,98652.91
2022-10-29T02:08:59.021Z,98664.72
2022-10-29T02:12:18.901Z,98660.25
2022-10-29T02:15:36.430Z,98660.06
2022-10-29T02:18:48.951Z,98653.25
2022-10-29T02:21:57.113Z,98647.38
2022-10-29T02:25:03.218Z,98658.56
2022-10-29T02:28:09.615Z,98649.88
2022-10-29T02:31:15.343Z,98638.25
2022-10-29T02:34:21.025Z,98634.22
2022-10-29T02:37:29.733Z,98630.06
2022-10-29T02:40:35.521Z,98631.44
2022-10-29T02:43:41.154Z,98637.91
2022-10-29T02:46:46.679Z,98639.75
2022-10-29T02:49:52.482Z,98635.25
2022-10-29T02:53:00.700Z,98638.59
2022-10-29T02:56:07.785Z,98642.22
2022-10-29T02:59:13.465Z,98628.75
2022-10-29T03:02:19.303Z,98633.41
2022-10-29T03:05:24.969Z,98640.91
2022-10-29T03:08:33.226Z,98633.91
2022-10-29T03:11:38.953Z,98627.38
2022-10-29T03:14:46.282Z,98624.94
2022-10-29T03:17:51.925Z,98642.56
2022-10-29T03:20:57.555Z,98635.44
2022-10-29T03:24:05.964Z,98633.56
2022-10-29T03:27:11.663Z,98629.03
2022-10-29T03:30:20.440Z,98622.88
2022-10-29T03:33:26.867Z,98651.19
2022-10-29T03:36:33.042Z,98661.28
2022-10-29T03:39:41.313Z,98657.44
2022-10-29T03:42:50.639Z,98656.13
2022-10-29T03:45:57.547Z,98660.09
2022-10-29T03:49:03.263Z,98674.91
2022-10-29T03:52:08.886Z,98680.56
2022-10-29T03:55:17.262Z,98680.41
2022-10-29T03:58:24.207Z,98680.78
2022-10-29T04:01:29.951Z,98675.78
2022-10-29T04:04:35.674Z,98682.06
2022-10-29T04:07:41.237Z,98670.41
2022-10-29T04:10:54.407Z,98674.56
2022-10-29T04:14:00.104Z,98657.72
2022-10-29T04:17:05.753Z,98667.22
2022-10-29T04:20:27.868Z,98666.91
2022-10-29T04:30:33.651Z,98639.94
2022-10-29T04:33:39.281Z,98655.44
2022-10-29T04:36:44.831Z,98654.91
2022-10-29T04:39:50.400Z,98652.91
2022-10-29T04:42:58.879Z,98635.81
2022-10-29T04:46:06.339Z,98617.53
2022-10-29T04:49:12.131Z,98596.91
2022-10-29T04:52:17.957Z,98586.41
2022-10-29T04:55:23.629Z,98563.44
2022-10-29T04:58:32.435Z,98631.38
2022-10-29T05:01:38.070Z,98660.97
2022-10-29T05:04:43.701Z,98653.63
2022-10-29T05:07:50.081Z,98641.06
2022-10-29T05:10:55.706Z,98679.34
2022-10-29T05:14:03.965Z,98662.72
2022-10-29T05:17:09.682Z,98656.47
2022-10-29T05:20:15.418Z,98663.81
2022-10-29T05:23:21.067Z,98664.63
2022-10-29T05:26:26.838Z,98664.78
2022-10-29T05:29:35.116Z,98662.16
2022-10-29T05:32:40.864Z,98657.66
2022-10-29T05:35:47.017Z,98648.59
2022-10-29T05:38:52.736Z,98653.91
2022-10-29T05:41:58.610Z,98646.09
2022-10-29T05:45:07.893Z,98640.50
2022-10-29T05:48:15.760Z,98644.31
2022-10-29T05:51:21.533Z,98642.50
2022-10-29T05:54:27.717Z,98632.09
2022-10-29T05:57:33.503Z,98641.44
2022-10-29T06:00:46.373Z,98655.78
2022-10-29T06:06:59.110Z,98648.09
2022-10-29T06:10:05.015Z,98644.22
2022-10-29T06:13:15.120Z,98647.97
2022-10-29T06:16:23.395Z,98658.84
2022-10-29T06:19:29.074Z,98677.59
2022-10-29T06:22:34.874Z,98673.22
2022-10-29T06:25:40.513Z,98684.03
2022-10-29T06:28:46.173Z,98696.16
2022-10-29T06:31:54.414Z,98681.06
2022-10-29T06:35:00.365Z,98688.97
2022-10-29T06:38:09.373Z,98702.50
2022-10-29T06:41:18.369Z,98708.97
2022-10-29T06:44:24.939Z,98695.97
2022-10-29T06:47:33.171Z,98684.78
2022-10-29T06:50:45.426Z,98695.59
2022-10-29T06:53:51.247Z,98696.63
2022-10-29T06:56:57.011Z,98699.75
2022-10-29T07:00:07.334Z,98720.97
2022-10-29T07:03:23.395Z,98708.22
2022-10-29T07:06:38.152Z,98708.59
2022-10-29T07:09:44.571Z,98720.88
2022-10-29T07:12:50.856Z,98717.03
2022-10-29T07:16:00.291Z,98727.84
2022-10-29T07:19:11.946Z,98740.94
2022-10-29T07:22:25.034Z,98740.22
2022-10-29T07:25:33.715Z,98756.56
2022-10-29T07:28:39.814Z,98754.16
2022-10-29T07:31:50.580Z,98756.09
2022-10-29T07:34:59.397Z,98742.72
2022-10-29T07:38:10.847Z,98747.06
2022-10-29T07:41:17.238Z,98753.66
2022-10-29T07:44:28.270Z,98745.00
2022-10-29T07:47:38.892Z,98757.88
2022-10-29T07:50:47.142Z,98757.75
2022-10-29T07:53:52.783Z,98757.69
2022-10-29T07:56:58.411Z,98762.38
2022-10-29T08:00:03.955Z,98769.31
2022-10-29T08:03:17.858Z,98770.84
2022-10-29T08:06:27.571Z,98770.34
2022-10-29T08:09:33.302Z,98769.75
2022-10-29T08:12:38.906Z,98772.63
2022-10-29T08:15:44.509Z,98769.03
2022-10-29T08:18:50.257Z,98772.53
2022-10-29T08:21:58.730Z,98778.66
2022-10-29T08:25:04.372Z,98773.47
2022-10-29T08:28:12.524Z,98788.97
2022-10-29T08:31:28.071Z,98790.00
2022-10-29T08:34:35.910Z,98791.28
2022-10-29T08:37:48.738Z,98772.38
2022-10-29T08:41:21.422Z,98785.25
2022-10-29T08:45:18.754Z,98781.31
2022-10-29T08:48:44.592Z,98777.84
2022-10-29T08:52:10.441Z,98778.63
2022-10-29T08:55:41.529Z,98779.94
2022-10-29T08:59:04.117Z,98771.78
2022-10-29T09:02:21.037Z,98775.38
2022-10-29T09:05:35.950Z,98781.88
2022-10-29T09:09:04.150Z,98778.66
2022-10-29T09:12:52.312Z,98773.97
2022-10-29T09:16:30.169Z,98778.13
2022-10-29T09:20:02.018Z,98782.19
2022-10-29T09:23:25.018Z,98780.34
2022-10-29T09:26:43.913Z,98773.84
2022-10-29T09:30:17.874Z,98774.44
2022-10-29T09:33:29.227Z,98777.31
2022-10-29T09:36:36.422Z,98789.41
2022-10-29T09:39:47.823Z,98783.84
2022-10-29T09:42:59.699Z,98782.63
2022-10-29T09:46:23.770Z,98774.91
2022-10-29T09:49:57.778Z,98772.63
2022-10-29T09:53:03.689Z,98769.81
2022-10-29T09:56:12.371Z,98757.94
2022-10-29T09:59:35.187Z,98755.91
2022-10-29T10:02:55.774Z,98744.38
2022-10-29T10:06:09.036Z,98750.81
2022-10-29T10:09:16.253Z,98754.47
2022-10-29T10:12:23.934Z,98747.28
2022-10-29T10:15:35.569Z,98745.72
2022-10-29T10:18:46.979Z,98736.38
2022-10-29T10:22:10.245Z,98737.63
2022-10-29T10:25:38.094Z,98733.25
2022-10-29T10:28:44.620Z,98738.13
2022-10-29T10:31:53.018Z,98735.97
2022-10-29T10:35:01.502Z,98736.78
2022-10-29T10:38:12.444Z,98723.25
2022-10-29T10:41:27.063Z,98718.31
2022-10-29T10:44:34.278Z,98724.19
2022-10-29T10:47:46.839Z,98712.16
2022-10-29T10:50:56.791Z,98709.97
2022-10-29T10:54:10.157Z,98709.88
2022-10-29T10:57:28.442Z,98709.13
2022-10-29T11:00:44.932Z,98713.28
2022-10-29T11:03:58.614Z,98708.59
2022-10-29T11:07:16.703Z,98697.97
2022-10-29T11:10:33.996Z,98702.28
2022-10-29T11:13:45.273Z,98703.22
2022-10-29T11:16:58.384Z,98696.13
2022-10-29T11:20:18.942Z,98691.13
2022-10-29T11:23:42.096Z,98701.16
2022-10-29T11:26:57.172Z,98692.19
2022-10-29T11:30:09.754Z,98693.97
2022-10-29T11:33:30.680Z,98692.75
2022-10-29T11:36:47.667Z,98698.25
2022-10-29T11:40:05.940Z,98692.69
2022-10-29T11:43:16.080Z,98694.94
2022-10-29T11:46:40.805Z,98687.00
2022-10-29T11:50:12.816Z,98685.59
2022-10-29T11:53:43.146Z,98689.81
2022-10-29T11:57:03.748Z,98686.63
2022-10-29T12:00:19.044Z,98684.31
2022-10-29T12:04:00.720Z,98684.44
2022-10-29T12:07:27.568Z,98678.91
2022-10-29T12:10:51.434Z,98675.56
2022-10-29T12:14:23.256Z,98669.97
2022-10-29T12:17:45.768Z,98667.91
2022-10-29T12:21:08.975Z,98665.41
2022-10-29T12:24:41.481Z,98659.28
2022-10-29T12:28:03.895Z,98656.56
2022-10-29T12:31:31.136Z,98658.31
2022-10-29T12:34:49.690Z,98667.56
2022-10-29T12:38:26.433Z,98664.25
2022-10-29T12:41:43.366Z,98666.72
2022-10-29T12:45:17.817Z,98660.47
2022-10-29T12:48:43.843Z,98654.63
2022-10-29T12:51:59.189Z,98654.41
2022-10-29T12:55:10.598Z,98650.53
2022-10-29T12:58:48.937Z,98649.22
2022-10-29T13:02:11.143Z,98653.81
2022-10-29T13:05:39.038Z,98655.09
2022-10-29T13:08:57.954Z,98648.72
2022-10-29T13:12:09.902Z,98640.03
2022-10-29T13:15:17.415Z,98641.28
2022-10-29T13:18:31.717Z,98642.34
2022-10-29T13:22:03.225Z,98644.06
2022-10-29T13:25:46.127Z,98643.53
2022-10-29T13:28:55.199Z,98652.03
2022-10-29T13:32:05.517Z,98650.41
2022-10-29T13:35:43.657Z,98654.94
2022-10-29T13:39:07.689Z,98643.28
2022-10-29T13:42:17.633Z,98645.25
2022-10-29T13:45:24.368Z,98647.31
2022-10-29T13:48:37.597Z,98638.56
2022-10-29T13:51:58.540Z,98626.56
2022-10-29T13:55:12.522Z,98620.06
2022-10-29T13:58:30.378Z,98624.44
2022-10-29T14:01:37.486Z,98631.94
2022-10-29T14:04:52.235Z,98625.72
2022-10-29T14:08:07.028Z,98619.09
2022-10-29T14:11:28.226Z,98613.88
2022-10-29T14:14:44.725Z,98622.34
2022-10-29T14:17:50.388Z,98626.00
2022-10-29T14:21:01.533Z,98618.09
2022-10-29T14:24:11.566Z,98637.06
2022-10-29T14:27:19.810Z,98635.66
2022-10-29T14:30:29.530Z,98627.88
2022-10-29T14:33:39.109Z,98625.53
2022-10-29T14:36:50.864Z,98630.69
2022-10-29T14:40:02.639Z,98621.59
2022-10-29T14:43:27.809Z,98630.16
2022-10-29T14:46:38.839Z,98621.88
2022-10-29T14:49:52.870Z,98627.63
2022-10-29T14:53:10.645Z,98622.44
2022-10-29T14:56:26.339Z,98632.50
2022-10-29T14:59:38.614Z,98639.50
2022-10-29T15:02:56.188Z,98632.44
2022-10-29T15:06:19.459Z,98636.47
2022-10-29T15:09:29.845Z,98641.31
2022-10-29T15:12:40.363Z,98645.34
2022-10-29T15:15:58.920Z,98632.59
2022-10-29T15:19:05.875Z,98648.03
2022-10-29T15:22:12.688Z,98643.03
2022-10-29T15:25:30.679Z,98633.13
2022-10-29T15:28:44.775Z,98628.38
2022-10-29T15:32:00.187Z,98625.41
2022-10-29T15:35:13.977Z,98617.22
2022-10-29T15:39:26.930Z,98612.91
2022-10-29T15:42:40.486Z,98617.13
2022-10-29T15:46:00.530Z,98614.28
2022-10-29T15:49:22.496Z,98609.84
2022-10-29T15:52:36.626Z,98613.06
2022-10-29T15:55:42.437Z,98605.63
2022-10-29T15:58:48.120Z,98592.41
2022-10-29T16:01:53.876Z,98601.03
2022-10-29T16:05:02.297Z,98597.41
2022-10-29T16:08:08.835Z,98607.13
2022-10-29T16:11:20.325Z,98609.41
2022-10-29T16:14:29.706Z,98600.56
2022-10-29T16:17:35.261Z,98606.94
2022-10-29T16:20:43.594Z,98615.78
2022-10-29T16:23:55.981Z,98614.47
2022-10-29T16:27:07.672Z,98611.91
2022-10-29T16:30:17.687Z,98614.84
2022-10-29T16:33:23.767Z,98608.94
2022-10-29T16:36:32.211Z,98614.63
2022-10-29T16:39:37.789Z,98609.94
2022-10-29T16:42:43.678Z,98607.25
2022-10-29T16:45:49.407Z,98613.31
2022-10-29T16:48:55.130Z,98607.41
2022-10-29T16:52:03.232Z,98611.84
2022-10-29T16:55:10.481Z,98612.38
2022-10-29T16:58:19.130Z,98613.97
2022-10-29T17:01:24.822Z,98613.72
2022-10-29T17:04:33.573Z,98615.84
2022-10-29T17:07:42.295Z,98611.59
2022-10-29T17:10:48.045Z,98603.94
2022-10-29T17:13:53.663Z,98603.88
2022-10-29T17:17:00.855Z,98601.34
2022-10-29T17:20:06.884Z,98605.97
2022-10-29T17:23:15.357Z,98597.66
2022-10-29T17:26:21.155Z,98596.34
2022-10-29T17:29:26.923Z,98600.41
2022-10-29T17:32:32.843Z,98595.72
2022-10-29T17:35:38.559Z,98605.75
2022-10-29T17:38:49.328Z,98597.94
2022-10-29T17:42:02.178Z,98621.50
2022-10-29T17:45:23.532Z,98617.47
2022-10-29T17:48:29.262Z,98613.69
2022-10-29T17:51:36.291Z,98608.28
2022-10-29T17:54:44.679Z,98610.94
2022-10-29T17:57:50.330Z,98605.31
2022-10-29T18:01:08.716Z,98609.38
2022-10-29T18:04:15.544Z,98605.03
2022-10-29T18:07:21.128Z,98609.72
2022-10-29T18:10:30.818Z,98615.72
2022-10-29T18:13:43.089Z,98621.25
2022-10-29T18:16:49.459Z,98617.84
2022-10-29T18:19:55.683Z,98619.03
2022-10-29T18:23:02.220Z,98620.69
2022-10-29T18:26:26.413Z,98619.09
2022-10-29T18:29:35.053Z,98618.75
2022-10-29T18:32:40.772Z,98605.09
2022-10-29T18:35:47.028Z,98618.00
2022-10-29T18:38:54.970Z,98616.81
2022-10-29T18:42:03.793Z,98612.31
2022-10-29T18:45:11.837Z,98604.50
2022-10-29T18:48:17.845Z,98609.28
2022-10-29T18:51:26.747Z,98604.44
2022-10-29T18:54:35.728Z,98609.31
2022-10-29T18:57:56.696Z,98608.63
2022-10-29T19:01:12.909Z,98606.59
2022-10-29T19:04:19.637Z,98615.88
2022-10-29T19:07:26.146Z,98606.88
2022-10-29T19:10:34.735Z,98600.47
2022-10-29T19:13:44.719Z,98598.03
2022-10-29T19:16:50.554Z,98598.38
2022-10-29T19:19:56.707Z,98599.38
2022-10-29T19:23:03.058Z,98602.88
2022-10-29T19:26:20.554Z,98600.25
2022-10-29T19:29:29.554Z,98593.28
2022-10-29T19:32:41.909Z,98595.19
2022-10-29T19:35:48.300Z,98592.34
2022-10-29T19:38:54.690Z,98584.75
2022-10-29T19:42:00.392Z,98589.78
2022-10-29T19:45:26.186Z,98586.16
2022-10-29T19:48:32.600Z,98599.75
2022-10-29T19:51:57.412Z,98592.09
2022-10-29T19:55:03.135Z,98602.88
2022-10-29T19:58:09.619Z,98606.97
2022-10-29T20:01:21.756Z,98614.16
2022-10-29T20:04:28.623Z,98602.66
2022-10-29T20:07:34.532Z,98600.41
2022-10-29T20:10:41.009Z,98594.00
2022-10-29T20:13:47.231Z,98603.31
2022-10-29T20:16:58.341Z,98597.97
2022-10-29T20:20:04.580Z,98600.75
2022-10-29T20:23:10.606Z,98600.66
2022-10-29T20:26:16.764Z,98609.31
2022-10-29T20:29:22.805Z,98604.00
2022-10-29T20:32:31.138Z,98602.56
2022-10-29T20:35:37.160Z,98606.91
2022-10-29T20:38:43.247Z,98611.50
2022-10-29T20:41:49.582Z,98606.53
2022-10-29T20:44:55.678Z,98609.22
2022-10-29T20:48:05.353Z,98611.06
2022-10-29T20:51:12.064Z,98609.00
2022-10-29T20:54:18.267Z,98607.78
2022-10-29T20:57:24.431Z,98606.09
2022-10-29T21:00:30.051Z,98607.75
2022-10-29T21:03:38.574Z,98607.38
2022-10-29T21:06:48.926Z,98600.72
2022-10-29T21:09:54.685Z,98602.69
2022-10-29T21:13:00.580Z,98598.34
2022-10-29T21:16:33.786Z,98592.69
2022-10-29T21:20:02.416Z,98590.38
2022-10-29T21:23:08.031Z,98593.28
2022-10-29T21:26:16.625Z,98593.28
2022-10-29T21:29:22.177Z,98596.00
2022-10-29T21:32:27.816Z,98602.06
2022-10-29T21:35:42.634Z,98599.28
2022-10-29T21:38:54.812Z,98594.91
2022-10-29T21:42:00.445Z,98581.38
2022-10-29T21:45:14.843Z,98566.84
2022-10-29T21:48:24.596Z,98553.31
2022-10-29T21:51:32.832Z,98537.31
2022-10-29T21:54:44.643Z,98536.81
2022-10-29T21:57:50.321Z,98545.94
2022-10-29T22:01:04.835Z,98535.69
2022-10-29T22:04:10.749Z,98541.06
2022-10-29T22:07:19.032Z,98544.22
2022-10-29T22:10:24.937Z,98557.81
2022-10-29T22:13:32.014Z,98548.16
2022-10-29T22:16:38.684Z,98547.03
2022-10-29T22:19:45.723Z,98555.88
2022-10-29T22:22:54.131Z,98550.00
2022-10-29T22:25:59.865Z,98553.53
2022-10-29T22:29:05.636Z,98548.16
2022-10-29T22:32:11.485Z,98547.38
2022-10-29T22:35:20.399Z,98541.81
2022-10-29T22:38:28.625Z,98533.44
2022-10-29T22:41:34.548Z,98525.88
2022-10-29T22:44:40.152Z,98536.25
2022-10-29T22:47:45.691Z,98544.59
2022-10-29T22:50:51.367Z,98532.09
2022-10-29T22:54:01.102Z,98526.66
2022-10-29T22:57:06.857Z,98536.81
2022-10-29T23:00:17.612Z,98537.19
2022-10-29T23:03:23.153Z,98531.06
2022-10-29T23:06:30.565Z,98532.16
2022-10-29T23:09:38.782Z,98532.25
2022-10-29T23:12:44.367Z,98547.22
2022-10-29T23:15:50.508Z,98533.19
2022-10-29T23:18:58.771Z,98523.53
2022-10-29T23:22:04.444Z,98532.66
2022-10-29T23:25:13.218Z,98539.38
2022-10-29T23:28:18.869Z,98535.38
2022-10-29T23:31:27.630Z,98506.09
2022-10-29T23:34:33.240Z,98501.66
2022-10-29T23:37:38.903Z,98509.59
2022-10-29T23:40:50.162Z,98500.97
2022-10-29T23:43:56.243Z,98497.50
2022-10-29T23:47:01.884Z,98500.09
2022-10-29T23:50:07.979Z,98494.56
2022-10-29T23:53:13.668Z,98496.50
2022-10-29T23:56:21.942Z,98494.97
2022-10-29T23:59:27.469Z,98498.38
